sensor_id;sensor_type;location;lat;lon;timestamp;pressure;altitude;pressure_sealevel;temperature;humidity
49825;BME280;35714;55.708;37.478;2023-05-29T00:00:32;99672.50;;;10.52;56.65
49825;BME280;35714;55.708;37.478;2023-05-29T00:02:58;99681.81;;;10.56;56.74
49825;BME280;35714;55.708;37.478;2023-05-29T00:05:24;99678.50;;;10.54;56.72
49825;BME280;35714;55.708;37.478;2023-05-29T00:07:50;99682.03;;;10.54;56.47
49825;BME280;35714;55.708;37.478;2023-05-29T00:10:16;99682.28;;;10.53;56.45
49825;BME280;35714;55.708;37.478;2023-05-29T00:12:41;99690.41;;;10.53;56.86
49825;BME280;35714;55.708;37.478;2023-05-29T00:15:08;99687.09;;;10.51;56.68
49825;BME280;35714;55.708;37.478;2023-05-29T00:17:35;99688.53;;;10.53;56.58
49825;BME280;35714;55.708;37.478;2023-05-29T00:20:02;99682.50;;;10.51;56.50
49825;BME280;35714;55.708;37.478;2023-05-29T00:22:37;99686.28;;;10.50;56.42
49825;BME280;35714;55.708;37.478;2023-05-29T00:25:06;99684.97;;;10.53;56.56
49825;BME280;35714;55.708;37.478;2023-05-29T00:27:33;99696.06;;;10.51;56.85
49825;BME280;35714;55.708;37.478;2023-05-29T00:29:59;99686.50;;;10.49;56.76
49825;BME280;35714;55.708;37.478;2023-05-29T00:32:25;99690.03;;;10.49;56.71
49825;BME280;35714;55.708;37.478;2023-05-29T00:34:53;99688.75;;;10.52;56.76
49825;BME280;35714;55.708;37.478;2023-05-29T00:37:19;99691.31;;;10.46;56.49
49825;BME280;35714;55.708;37.478;2023-05-29T00:39:47;99692.53;;;10.51;56.51
49825;BME280;35714;55.708;37.478;2023-05-29T00:42:13;99688.75;;;10.52;56.42
49825;BME280;35714;55.708;37.478;2023-05-29T00:44:39;99683.34;;;10.52;56.42
49825;BME280;35714;55.708;37.478;2023-05-29T00:47:05;99682.84;;;10.55;56.39
49825;BME280;35714;55.708;37.478;2023-05-29T00:49:32;99680.00;;;10.50;56.45
49825;BME280;35714;55.708;37.478;2023-05-29T00:51:59;99687.00;;;10.57;56.20
49825;BME280;35714;55.708;37.478;2023-05-29T00:54:27;99688.91;;;10.57;56.36
49825;BME280;35714;55.708;37.478;2023-05-29T00:56:54;99694.91;;;10.59;56.23
49825;BME280;35714;55.708;37.478;2023-05-29T00:59:22;99703.06;;;10.59;56.05
49825;BME280;35714;55.708;37.478;2023-05-29T01:01:52;99704.94;;;10.58;56.29
49825;BME280;35714;55.708;37.478;2023-05-29T01:04:20;99704.31;;;10.56;56.43
49825;BME280;35714;55.708;37.478;2023-05-29T01:06:47;99699.13;;;10.55;55.97
49825;BME280;35714;55.708;37.478;2023-05-29T01:09:12;99697.94;;;10.51;56.29
49825;BME280;35714;55.708;37.478;2023-05-29T01:14:36;99701.63;;;10.56;56.28
49825;BME280;35714;55.708;37.478;2023-05-29T01:17:06;99702.81;;;10.60;55.73
49825;BME280;35714;55.708;37.478;2023-05-29T01:22:49;99710.59;;;10.57;55.88
49825;BME280;35714;55.708;37.478;2023-05-29T01:28:22;99702.47;;;10.57;56.29
49825;BME280;35714;55.708;37.478;2023-05-29T01:30:50;99697.50;;;10.54;56.28
49825;BME280;35714;55.708;37.478;2023-05-29T01:33:17;99713.31;;;10.57;56.16
49825;BME280;35714;55.708;37.478;2023-05-29T01:35:43;99712.22;;;10.58;56.16
49825;BME280;35714;55.708;37.478;2023-05-29T01:38:08;99714.47;;;10.61;56.20
49825;BME280;35714;55.708;37.478;2023-05-29T01:40:34;99707.44;;;10.60;56.25
49825;BME280;35714;55.708;37.478;2023-05-29T01:43:01;99709.53;;;10.58;56.20
49825;BME280;35714;55.708;37.478;2023-05-29T01:45:27;99709.91;;;10.61;56.20
49825;BME280;35714;55.708;37.478;2023-05-29T01:47:53;99722.78;;;10.66;55.95
49825;BME280;35714;55.708;37.478;2023-05-29T01:50:20;99703.41;;;10.62;55.91
49825;BME280;35714;55.708;37.478;2023-05-29T01:52:47;99715.25;;;10.68;55.93
49825;BME280;35714;55.708;37.478;2023-05-29T01:55:14;99713.56;;;10.67;56.00
49825;BME280;35714;55.708;37.478;2023-05-29T01:57:40;99713.13;;;10.70;55.91
49825;BME280;35714;55.708;37.478;2023-05-29T02:00:06;99710.19;;;10.72;55.70
49825;BME280;35714;55.708;37.478;2023-05-29T02:02:41;99720.97;;;10.78;55.71
49825;BME280;35714;55.708;37.478;2023-05-29T02:05:08;99718.84;;;10.80;55.52
49825;BME280;35714;55.708;37.478;2023-05-29T02:07:34;99715.66;;;10.83;55.76
49825;BME280;35714;55.708;37.478;2023-05-29T02:10:04;99714.97;;;10.88;55.24
49825;BME280;35714;55.708;37.478;2023-05-29T02:12:31;99719.38;;;11.01;55.33
49825;BME280;35714;55.708;37.478;2023-05-29T02:14:57;99712.31;;;11.00;55.06
49825;BME280;35714;55.708;37.478;2023-05-29T02:17:23;99721.31;;;11.12;54.88
49825;BME280;35714;55.708;37.478;2023-05-29T02:19:50;99716.47;;;11.14;54.74
49825;BME280;35714;55.708;37.478;2023-05-29T02:22:17;99725.81;;;11.18;54.89
49825;BME280;35714;55.708;37.478;2023-05-29T02:24:43;99732.44;;;11.23;54.70
49825;BME280;35714;55.708;37.478;2023-05-29T02:27:09;99722.19;;;11.25;54.36
49825;BME280;35714;55.708;37.478;2023-05-29T02:29:35;99724.78;;;11.31;54.41
49825;BME280;35714;55.708;37.478;2023-05-29T02:32:00;99725.75;;;11.37;54.39
49825;BME280;35714;55.708;37.478;2023-05-29T02:34:26;99723.16;;;11.42;54.18
49825;BME280;35714;55.708;37.478;2023-05-29T02:36:52;99724.34;;;11.46;54.18
49825;BME280;35714;55.708;37.478;2023-05-29T02:39:18;99728.84;;;11.52;53.69
49825;BME280;35714;55.708;37.478;2023-05-29T02:41:44;99729.78;;;11.58;53.57
49825;BME280;35714;55.708;37.478;2023-05-29T02:44:10;99722.59;;;11.64;53.40
49825;BME280;35714;55.708;37.478;2023-05-29T02:46:36;99725.44;;;11.69;53.31
49825;BME280;35714;55.708;37.478;2023-05-29T02:49:02;99726.63;;;11.73;53.07
49825;BME280;35714;55.708;37.478;2023-05-29T02:51:29;99729.56;;;11.83;53.07
49825;BME280;35714;55.708;37.478;2023-05-29T02:53:55;99728.63;;;11.89;52.91
49825;BME280;35714;55.708;37.478;2023-05-29T02:56:21;99732.94;;;11.97;52.64
49825;BME280;35714;55.708;37.478;2023-05-29T02:58:53;99732.31;;;12.07;52.62
49825;BME280;35714;55.708;37.478;2023-05-29T03:01:19;99738.72;;;12.13;52.51
49825;BME280;35714;55.708;37.478;2023-05-29T03:03:45;99740.47;;;12.19;52.45
49825;BME280;35714;55.708;37.478;2023-05-29T03:06:11;99744.13;;;12.24;52.15
49825;BME280;35714;55.708;37.478;2023-05-29T03:08:41;99744.84;;;12.32;52.05
49825;BME280;35714;55.708;37.478;2023-05-29T03:11:11;99747.66;;;12.37;51.70
49825;BME280;35714;55.708;37.478;2023-05-29T03:13:38;99746.72;;;12.43;51.61
49825;BME280;35714;55.708;37.478;2023-05-29T03:16:07;99742.84;;;12.39;51.20
49825;BME280;35714;55.708;37.478;2023-05-29T03:18:34;99743.59;;;12.51;50.87
49825;BME280;35714;55.708;37.478;2023-05-29T03:21:01;99751.28;;;12.54;50.54
49825;BME280;35714;55.708;37.478;2023-05-29T03:23:29;99751.41;;;12.59;50.45
49825;BME280;35714;55.708;37.478;2023-05-29T03:25:55;99757.53;;;12.67;50.38
49825;BME280;35714;55.708;37.478;2023-05-29T03:28:21;99747.75;;;12.66;50.24
49825;BME280;35714;55.708;37.478;2023-05-29T03:30:47;99761.06;;;12.79;50.03
49825;BME280;35714;55.708;37.478;2023-05-29T03:33:17;99758.44;;;12.84;49.70
49825;BME280;35714;55.708;37.478;2023-05-29T03:36:05;99761.03;;;12.91;49.52
49825;BME280;35714;55.708;37.478;2023-05-29T03:38:33;99758.16;;;12.97;49.03
49825;BME280;35714;55.708;37.478;2023-05-29T03:40:59;99756.72;;;13.07;48.61
49825;BME280;35714;55.708;37.478;2023-05-29T03:43:26;99756.56;;;13.13;48.09
49825;BME280;35714;55.708;37.478;2023-05-29T03:45:52;99763.66;;;13.14;47.44
49825;BME280;35714;55.708;37.478;2023-05-29T03:48:19;99760.44;;;13.17;47.52
49825;BME280;35714;55.708;37.478;2023-05-29T03:50:46;99765.75;;;13.24;47.56
49825;BME280;35714;55.708;37.478;2023-05-29T03:53:13;99767.50;;;13.30;47.22
49825;BME280;35714;55.708;37.478;2023-05-29T03:55:39;99769.84;;;13.39;47.28
49825;BME280;35714;55.708;37.478;2023-05-29T03:58:07;99772.16;;;13.47;47.05
49825;BME280;35714;55.708;37.478;2023-05-29T04:00:33;99779.94;;;13.55;46.98
49825;BME280;35714;55.708;37.478;2023-05-29T04:03:01;99775.16;;;13.62;46.93
49825;BME280;35714;55.708;37.478;2023-05-29T04:05:27;99774.97;;;13.69;46.43
49825;BME280;35714;55.708;37.478;2023-05-29T04:07:53;99775.41;;;13.78;46.21
49825;BME280;35714;55.708;37.478;2023-05-29T04:10:19;99770.34;;;13.86;45.93
49825;BME280;35714;55.708;37.478;2023-05-29T04:12:45;99775.16;;;13.96;45.59
49825;BME280;35714;55.708;37.478;2023-05-29T04:15:11;99777.47;;;14.04;45.27
49825;BME280;35714;55.708;37.478;2023-05-29T04:17:37;99780.25;;;14.10;44.96
49825;BME280;35714;55.708;37.478;2023-05-29T04:20:03;99781.75;;;14.17;45.35
49825;BME280;35714;55.708;37.478;2023-05-29T04:22:37;99781.31;;;14.25;45.17
49825;BME280;35714;55.708;37.478;2023-05-29T04:25:04;99786.19;;;14.40;45.08
49825;BME280;35714;55.708;37.478;2023-05-29T04:27:31;99775.97;;;14.53;44.87
49825;BME280;35714;55.708;37.478;2023-05-29T04:30:05;99783.81;;;14.66;44.66
49825;BME280;35714;55.708;37.478;2023-05-29T04:32:36;99784.78;;;14.77;44.33
49825;BME280;35714;55.708;37.478;2023-05-29T04:35:02;99784.31;;;14.85;43.95
49825;BME280;35714;55.708;37.478;2023-05-29T04:37:29;99793.97;;;14.93;43.55
49825;BME280;35714;55.708;37.478;2023-05-29T04:39:58;99787.00;;;15.02;43.76
49825;BME280;35714;55.708;37.478;2023-05-29T04:42:25;99798.59;;;15.14;43.29
49825;BME280;35714;55.708;37.478;2023-05-29T04:44:52;99799.81;;;15.24;42.80
49825;BME280;35714;55.708;37.478;2023-05-29T04:47:19;99801.81;;;15.33;43.01
49825;BME280;35714;55.708;37.478;2023-05-29T04:49:45;99789.09;;;15.44;43.02
49825;BME280;35714;55.708;37.478;2023-05-29T04:52:18;99798.47;;;15.54;41.81
49825;BME280;35714;55.708;37.478;2023-05-29T04:54:44;99787.00;;;15.57;41.67
49825;BME280;35714;55.708;37.478;2023-05-29T04:57:11;99799.66;;;15.63;41.30
49825;BME280;35714;55.708;37.478;2023-05-29T04:59:38;99800.50;;;15.68;41.47
49825;BME280;35714;55.708;37.478;2023-05-29T05:02:04;99799.28;;;15.81;41.11
49825;BME280;35714;55.708;37.478;2023-05-29T05:04:31;99795.31;;;15.94;40.77
49825;BME280;35714;55.708;37.478;2023-05-29T05:06:58;99797.84;;;16.06;40.89
49825;BME280;35714;55.708;37.478;2023-05-29T05:09:24;99797.13;;;16.21;40.26
49825;BME280;35714;55.708;37.478;2023-05-29T05:11:50;99804.63;;;16.36;40.09
49825;BME280;35714;55.708;37.478;2023-05-29T05:14:17;99801.69;;;16.48;39.76
49825;BME280;35714;55.708;37.478;2023-05-29T05:16:43;99805.84;;;16.55;39.05
49825;BME280;35714;55.708;37.478;2023-05-29T05:19:09;99797.38;;;16.62;38.78
49825;BME280;35714;55.708;37.478;2023-05-29T05:21:38;99802.06;;;16.72;39.08
49825;BME280;35714;55.708;37.478;2023-05-29T05:24:04;99799.94;;;16.84;37.83
49825;BME280;35714;55.708;37.478;2023-05-29T05:26:31;99801.09;;;16.88;38.58
49825;BME280;35714;55.708;37.478;2023-05-29T05:28:56;99791.81;;;17.00;38.49
49825;BME280;35714;55.708;37.478;2023-05-29T05:31:24;99796.25;;;17.11;37.93
49825;BME280;35714;55.708;37.478;2023-05-29T05:33:51;99800.66;;;17.17;37.94
49825;BME280;35714;55.708;37.478;2023-05-29T05:36:18;99799.00;;;17.21;37.43
49825;BME280;35714;55.708;37.478;2023-05-29T05:38:52;99809.97;;;17.21;37.28
49825;BME280;35714;55.708;37.478;2023-05-29T05:41:18;99803.66;;;17.21;37.15
49825;BME280;35714;55.708;37.478;2023-05-29T05:43:44;99788.03;;;17.16;37.90
49825;BME280;35714;55.708;37.478;2023-05-29T05:46:33;99808.09;;;17.37;37.10
49825;BME280;35714;55.708;37.478;2023-05-29T05:48:58;99810.03;;;17.47;37.30
49825;BME280;35714;55.708;37.478;2023-05-29T05:51:26;99810.03;;;17.57;36.45
49825;BME280;35714;55.708;37.478;2023-05-29T05:53:52;99815.00;;;17.65;36.67
49825;BME280;35714;55.708;37.478;2023-05-29T05:56:19;99809.53;;;17.71;34.06
49825;BME280;35714;55.708;37.478;2023-05-29T05:58:45;99805.13;;;17.70;34.10
49825;BME280;35714;55.708;37.478;2023-05-29T06:01:11;99801.28;;;17.76;34.62
49825;BME280;35714;55.708;37.478;2023-05-29T06:03:37;99802.41;;;17.85;33.97
49825;BME280;35714;55.708;37.478;2023-05-29T06:06:06;99811.75;;;17.94;33.44
49825;BME280;35714;55.708;37.478;2023-05-29T06:08:34;99816.44;;;17.99;31.45
49825;BME280;35714;55.708;37.478;2023-05-29T06:11:00;99809.00;;;17.99;30.99
49825;BME280;35714;55.708;37.478;2023-05-29T06:13:27;99819.44;;;18.08;30.77
49825;BME280;35714;55.708;37.478;2023-05-29T06:15:58;99812.59;;;18.05;30.30
49825;BME280;35714;55.708;37.478;2023-05-29T06:18:24;99811.19;;;18.08;30.83
49825;BME280;35714;55.708;37.478;2023-05-29T06:20:49;99815.03;;;18.12;30.54
49825;BME280;35714;55.708;37.478;2023-05-29T06:23:15;99816.69;;;18.18;28.89
49825;BME280;35714;55.708;37.478;2023-05-29T06:25:41;99813.41;;;18.16;28.74
49825;BME280;35714;55.708;37.478;2023-05-29T06:28:07;99813.94;;;18.23;29.11
49825;BME280;35714;55.708;37.478;2023-05-29T06:30:33;99820.50;;;18.43;28.36
49825;BME280;35714;55.708;37.478;2023-05-29T06:33:01;99817.69;;;18.58;27.25
49825;BME280;35714;55.708;37.478;2023-05-29T06:35:30;99822.06;;;18.74;27.35
49825;BME280;35714;55.708;37.478;2023-05-29T06:37:56;99822.56;;;18.97;26.39
49825;BME280;35714;55.708;37.478;2023-05-29T06:40:22;99829.09;;;19.17;26.16
49825;BME280;35714;55.708;37.478;2023-05-29T06:42:48;99833.91;;;19.40;25.81
49825;BME280;35714;55.708;37.478;2023-05-29T06:45:15;99839.75;;;19.73;25.32
49825;BME280;35714;55.708;37.478;2023-05-29T06:47:42;99831.56;;;20.02;25.00
49825;BME280;35714;55.708;37.478;2023-05-29T06:50:09;99843.13;;;20.34;24.42
49825;BME280;35714;55.708;37.478;2023-05-29T06:52:36;99833.22;;;20.62;23.02
49825;BME280;35714;55.708;37.478;2023-05-29T06:55:19;99840.28;;;20.98;24.07
49825;BME280;35714;55.708;37.478;2023-05-29T06:57:46;99824.41;;;21.33;23.69
49825;BME280;35714;55.708;37.478;2023-05-29T07:00:12;99822.09;;;21.97;24.72
49825;BME280;35714;55.708;37.478;2023-05-29T07:02:44;99833.13;;;22.77;24.29
49825;BME280;35714;55.708;37.478;2023-05-29T07:05:10;99834.75;;;23.33;21.38
49825;BME280;35714;55.708;37.478;2023-05-29T07:07:37;99833.34;;;23.72;22.26
49825;BME280;35714;55.708;37.478;2023-05-29T07:10:03;99837.28;;;24.17;20.73
49825;BME280;35714;55.708;37.478;2023-05-29T07:12:30;99836.25;;;24.35;19.83
49825;BME280;35714;55.708;37.478;2023-05-29T07:14:56;99843.22;;;24.32;19.16
49825;BME280;35714;55.708;37.478;2023-05-29T07:17:21;99837.59;;;24.15;19.49
49825;BME280;35714;55.708;37.478;2023-05-29T07:19:58;99829.75;;;24.17;19.98
49825;BME280;35714;55.708;37.478;2023-05-29T07:22:24;99836.13;;;24.49;18.93
49825;BME280;35714;55.708;37.478;2023-05-29T07:24:50;99820.16;;;24.77;19.41
49825;BME280;35714;55.708;37.478;2023-05-29T07:27:16;99835.19;;;25.43;19.70
49825;BME280;35714;55.708;37.478;2023-05-29T07:29:41;99833.41;;;25.90;18.38
49825;BME280;35714;55.708;37.478;2023-05-29T07:32:08;99828.19;;;26.15;18.89
49825;BME280;35714;55.708;37.478;2023-05-29T07:34:35;99821.16;;;26.74;19.43
49825;BME280;35714;55.708;37.478;2023-05-29T07:37:03;99833.75;;;27.40;18.21
49825;BME280;35714;55.708;37.478;2023-05-29T07:39:33;99827.28;;;27.48;15.70
49825;BME280;35714;55.708;37.478;2023-05-29T07:42:03;99826.63;;;27.21;16.81
49825;BME280;35714;55.708;37.478;2023-05-29T07:44:29;99828.69;;;27.42;16.28
49825;BME280;35714;55.708;37.478;2023-05-29T07:46:55;99828.25;;;27.52;16.14
49825;BME280;35714;55.708;37.478;2023-05-29T07:49:30;99820.13;;;27.47;15.90
49825;BME280;35714;55.708;37.478;2023-05-29T07:51:56;99824.97;;;26.99;16.42
49825;BME280;35714;55.708;37.478;2023-05-29T07:54:22;99820.16;;;26.78;16.36
49825;BME280;35714;55.708;37.478;2023-05-29T07:56:49;99827.50;;;26.83;16.27
49825;BME280;35714;55.708;37.478;2023-05-29T07:59:14;99822.84;;;26.96;16.69
49825;BME280;35714;55.708;37.478;2023-05-29T08:01:40;99837.41;;;27.31;16.71
49825;BME280;35714;55.708;37.478;2023-05-29T08:04:12;99832.47;;;27.58;15.46
49825;BME280;35714;55.708;37.478;2023-05-29T08:06:39;99832.47;;;27.58;16.19
49825;BME280;35714;55.708;37.478;2023-05-29T08:09:08;99821.06;;;27.72;15.41
49825;BME280;35714;55.708;37.478;2023-05-29T08:11:36;99821.84;;;28.15;14.92
49825;BME280;35714;55.708;37.478;2023-05-29T08:14:03;99822.28;;;28.17;14.53
49825;BME280;35714;55.708;37.478;2023-05-29T08:16:29;99831.63;;;28.21;14.65
49825;BME280;35714;55.708;37.478;2023-05-29T08:18:55;99823.53;;;28.40;14.61
49825;BME280;35714;55.708;37.478;2023-05-29T08:21:21;99823.97;;;28.30;14.88
49825;BME280;35714;55.708;37.478;2023-05-29T08:23:47;99819.81;;;28.36;15.81
49825;BME280;35714;55.708;37.478;2023-05-29T08:26:12;99824.28;;;29.11;15.80
49825;BME280;35714;55.708;37.478;2023-05-29T08:28:39;99825.09;;;29.90;15.73
49825;BME280;35714;55.708;37.478;2023-05-29T08:31:04;99829.84;;;30.46;14.13
49825;BME280;35714;55.708;37.478;2023-05-29T08:33:30;99819.19;;;30.51;14.32
49825;BME280;35714;55.708;37.478;2023-05-29T08:35:58;99830.19;;;30.92;14.82
49825;BME280;35714;55.708;37.478;2023-05-29T08:38:24;99829.78;;;31.41;13.19
49825;BME280;35714;55.708;37.478;2023-05-29T08:40:51;99828.81;;;31.34;12.84
49825;BME280;35714;55.708;37.478;2023-05-29T08:45:43;99809.22;;;31.18;13.08
49825;BME280;35714;55.708;37.478;2023-05-29T08:48:11;99817.16;;;31.51;12.93
49825;BME280;35714;55.708;37.478;2023-05-29T08:50:46;99820.44;;;31.53;12.07
49825;BME280;35714;55.708;37.478;2023-05-29T08:53:15;99820.09;;;31.39;12.15
49825;BME280;35714;55.708;37.478;2023-05-29T08:55:42;99816.88;;;31.37;12.42
49825;BME280;35714;55.708;37.478;2023-05-29T08:58:08;99821.94;;;31.66;12.11
49825;BME280;35714;55.708;37.478;2023-05-29T09:00:35;99825.69;;;31.55;12.13
49825;BME280;35714;55.708;37.478;2023-05-29T09:03:02;99812.84;;;31.38;12.54
49825;BME280;35714;55.708;37.478;2023-05-29T09:05:28;99807.34;;;31.41;12.75
49825;BME280;35714;55.708;37.478;2023-05-29T09:07:56;99809.94;;;31.50;11.93
49825;BME280;35714;55.708;37.478;2023-05-29T09:10:22;99811.47;;;31.63;11.88
49825;BME280;35714;55.708;37.478;2023-05-29T09:12:48;99797.38;;;31.44;12.15
49825;BME280;35714;55.708;37.478;2023-05-29T09:15:18;99802.72;;;31.49;12.18
49825;BME280;35714;55.708;37.478;2023-05-29T09:17:50;99788.78;;;31.72;12.45
49825;BME280;35714;55.708;37.478;2023-05-29T09:20:17;99794.16;;;32.00;12.23
49825;BME280;35714;55.708;37.478;2023-05-29T09:22:59;99800.47;;;32.36;11.39
49825;BME280;35714;55.708;37.478;2023-05-29T09:25:31;99794.66;;;32.26;12.01
49825;BME280;35714;55.708;37.478;2023-05-29T09:28:03;99806.19;;;32.90;11.34
49825;BME280;35714;55.708;37.478;2023-05-29T09:30:40;99801.69;;;33.12;11.02
49825;BME280;35714;55.708;37.478;2023-05-29T09:33:08;99792.56;;;32.65;10.89
49825;BME280;35714;55.708;37.478;2023-05-29T09:38:08;99794.91;;;31.97;11.47
49825;BME280;35714;55.708;37.478;2023-05-29T09:40:38;99808.06;;;31.54;11.76
49825;BME280;35714;55.708;37.478;2023-05-29T09:43:09;99783.41;;;31.08;11.71
49825;BME280;35714;55.708;37.478;2023-05-29T09:45:40;99786.22;;;30.92;12.29
49825;BME280;35714;55.708;37.478;2023-05-29T09:48:13;99784.06;;;31.02;12.17
49825;BME280;35714;55.708;37.478;2023-05-29T09:50:39;99786.75;;;30.98;12.30
49825;BME280;35714;55.708;37.478;2023-05-29T09:53:21;99779.91;;;31.31;12.89
49825;BME280;35714;55.708;37.478;2023-05-29T09:55:53;99781.19;;;31.92;11.51
49825;BME280;35714;55.708;37.478;2023-05-29T09:58:20;99772.81;;;31.96;11.83
49825;BME280;35714;55.708;37.478;2023-05-29T10:00:47;99768.53;;;32.45;12.11
49825;BME280;35714;55.708;37.478;2023-05-29T10:03:14;99762.66;;;33.30;11.82
49825;BME280;35714;55.708;37.478;2023-05-29T10:05:41;99767.13;;;33.99;10.10
49825;BME280;35714;55.708;37.478;2023-05-29T10:08:11;99774.44;;;33.73;9.58
49825;BME280;35714;55.708;37.478;2023-05-29T10:10:40;99781.34;;;33.45;10.48
49825;BME280;35714;55.708;37.478;2023-05-29T10:13:11;99779.38;;;33.19;10.87
49825;BME280;35714;55.708;37.478;2023-05-29T10:15:41;99780.16;;;33.20;10.31
49825;BME280;35714;55.708;37.478;2023-05-29T10:18:39;99781.22;;;33.12;10.70
49825;BME280;35714;55.708;37.478;2023-05-29T10:21:07;99762.56;;;32.23;11.09
49825;BME280;35714;55.708;37.478;2023-05-29T10:23:37;99760.94;;;32.22;11.58
49825;BME280;35714;55.708;37.478;2023-05-29T10:26:26;99767.19;;;32.85;11.64
49825;BME280;35714;55.708;37.478;2023-05-29T10:28:58;99761.66;;;33.45;11.19
49825;BME280;35714;55.708;37.478;2023-05-29T10:31:33;99754.78;;;33.73;9.79
49825;BME280;35714;55.708;37.478;2023-05-29T10:39:48;99746.56;;;32.73;10.59
49825;BME280;35714;55.708;37.478;2023-05-29T10:42:50;99752.19;;;33.27;10.93
49825;BME280;35714;55.708;37.478;2023-05-29T10:50:38;99750.34;;;33.72;9.86
49825;BME280;35714;55.708;37.478;2023-05-29T10:53:15;99742.22;;;33.33;10.33
49825;BME280;35714;55.708;37.478;2023-05-29T10:55:42;99744.84;;;33.19;10.54
49825;BME280;35714;55.708;37.478;2023-05-29T10:58:17;99741.47;;;33.36;11.13
49825;BME280;35714;55.708;37.478;2023-05-29T11:00:45;99742.28;;;33.40;10.65
49825;BME280;35714;55.708;37.478;2023-05-29T11:03:43;99739.94;;;33.76;10.18
49825;BME280;35714;55.708;37.478;2023-05-29T11:06:21;99747.69;;;33.87;10.52
49825;BME280;35714;55.708;37.478;2023-05-29T11:08:56;99742.97;;;33.64;10.34
49825;BME280;35714;55.708;37.478;2023-05-29T11:11:40;99732.94;;;33.63;10.25
49825;BME280;35714;55.708;37.478;2023-05-29T11:14:07;99729.81;;;34.09;10.14
49825;BME280;35714;55.708;37.478;2023-05-29T11:19:08;99729.50;;;34.63;10.16
49825;BME280;35714;55.708;37.478;2023-05-29T11:24:21;99720.78;;;34.79;10.25
49825;BME280;35714;55.708;37.478;2023-05-29T11:26:47;99732.31;;;34.63;10.62
49825;BME280;35714;55.708;37.478;2023-05-29T11:29:12;99735.72;;;34.86;9.58
49825;BME280;35714;55.708;37.478;2023-05-29T11:31:40;99718.56;;;34.09;9.87
49825;BME280;35714;55.708;37.478;2023-05-29T11:34:09;99715.38;;;34.14;10.76
49825;BME280;35714;55.708;37.478;2023-05-29T11:36:36;99722.59;;;34.53;9.67
49825;BME280;35714;55.708;37.478;2023-05-29T11:39:02;99710.63;;;34.19;10.36
49825;BME280;35714;55.708;37.478;2023-05-29T11:41:29;99721.06;;;34.66;10.54
49825;BME280;35714;55.708;37.478;2023-05-29T11:44:00;99704.31;;;34.81;8.98
49825;BME280;35714;55.708;37.478;2023-05-29T11:46:31;99712.63;;;34.18;9.83
49825;BME280;35714;55.708;37.478;2023-05-29T11:48:59;99720.78;;;33.89;9.46
49825;BME280;35714;55.708;37.478;2023-05-29T11:51:25;99716.38;;;33.58;9.66
49825;BME280;35714;55.708;37.478;2023-05-29T11:53:51;99705.84;;;33.48;9.91
49825;BME280;35714;55.708;37.478;2023-05-29T11:56:25;99707.50;;;33.52;10.01
49825;BME280;35714;55.708;37.478;2023-05-29T11:58:52;99698.25;;;33.86;9.81
49825;BME280;35714;55.708;37.478;2023-05-29T12:01:22;99693.72;;;34.19;9.82
49825;BME280;35714;55.708;37.478;2023-05-29T12:03:49;99700.72;;;34.32;9.62
49825;BME280;35714;55.708;37.478;2023-05-29T12:06:15;99691.22;;;34.55;9.67
49825;BME280;35714;55.708;37.478;2023-05-29T12:08:41;99697.59;;;35.07;9.54
49825;BME280;35714;55.708;37.478;2023-05-29T12:11:08;99692.13;;;35.43;8.72
49825;BME280;35714;55.708;37.478;2023-05-29T12:13:33;99689.91;;;35.04;8.37
49825;BME280;35714;55.708;37.478;2023-05-29T12:16:02;99693.84;;;34.81;8.65
49825;BME280;35714;55.708;37.478;2023-05-29T12:18:28;99680.66;;;35.00;8.42
49825;BME280;35714;55.708;37.478;2023-05-29T12:21:02;99681.97;;;35.24;8.60
49825;BME280;35714;55.708;37.478;2023-05-29T12:23:29;99681.72;;;35.69;8.44
49825;BME280;35714;55.708;37.478;2023-05-29T12:25:56;99683.38;;;35.77;8.14
49825;BME280;35714;55.708;37.478;2023-05-29T12:28:22;99688.09;;;35.40;8.71
49825;BME280;35714;55.708;37.478;2023-05-29T12:30:49;99673.84;;;35.08;8.82
49825;BME280;35714;55.708;37.478;2023-05-29T12:33:32;99684.84;;;35.31;9.02
49825;BME280;35714;55.708;37.478;2023-05-29T12:36:05;99674.28;;;35.17;9.18
49825;BME280;35714;55.708;37.478;2023-05-29T12:38:46;99678.22;;;34.98;9.20
49825;BME280;35714;55.708;37.478;2023-05-29T12:41:29;99685.50;;;35.06;9.37
49825;BME280;35714;55.708;37.478;2023-05-29T12:43:56;99669.06;;;35.23;9.36
49825;BME280;35714;55.708;37.478;2023-05-29T12:46:25;99672.03;;;35.70;9.06
49825;BME280;35714;55.708;37.478;2023-05-29T12:48:54;99656.00;;;35.95;8.60
49825;BME280;35714;55.708;37.478;2023-05-29T12:51:27;99668.88;;;35.79;8.81
49825;BME280;35714;55.708;37.478;2023-05-29T12:53:53;99656.63;;;35.28;9.20
49825;BME280;35714;55.708;37.478;2023-05-29T12:56:24;99662.56;;;35.12;9.36
49825;BME280;35714;55.708;37.478;2023-05-29T12:58:52;99656.59;;;35.20;9.55
49825;BME280;35714;55.708;37.478;2023-05-29T13:01:17;99662.34;;;35.49;8.70
49825;BME280;35714;55.708;37.478;2023-05-29T13:03:43;99664.00;;;35.72;8.97
49825;BME280;35714;55.708;37.478;2023-05-29T13:06:10;99653.44;;;35.40;8.59
49825;BME280;35714;55.708;37.478;2023-05-29T13:08:36;99666.31;;;34.60;8.84
49825;BME280;35714;55.708;37.478;2023-05-29T13:11:02;99660.88;;;34.30;9.94
49825;BME280;35714;55.708;37.478;2023-05-29T13:13:27;99657.66;;;34.28;10.03
49825;BME280;35714;55.708;37.478;2023-05-29T13:15:53;99657.72;;;34.35;10.13
49825;BME280;35714;55.708;37.478;2023-05-29T13:18:19;99653.91;;;34.16;9.90
49825;BME280;35714;55.708;37.478;2023-05-29T13:20:44;99652.78;;;34.25;10.24
49825;BME280;35714;55.708;37.478;2023-05-29T13:23:10;99669.03;;;34.46;9.81
49825;BME280;35714;55.708;37.478;2023-05-29T13:25:36;99656.41;;;34.25;9.64